createdAt,value
2022-10-05T00:02:00.628Z,8.84
2022-10-05T00:05:14.380Z,8.83
2022-10-05T00:12:37.571Z,8.75
2022-10-05T00:15:52.568Z,8.66
2022-10-05T00:19:01.062Z,8.67
2022-10-05T00:22:15.571Z,8.68
2022-10-05T00:25:24.363Z,8.62
2022-10-05T00:28:41.565Z,8.64
2022-10-05T00:32:03.611Z,8.65
2022-10-05T00:35:05.882Z,8.58
2022-10-05T00:38:35.582Z,8.54
2022-10-05T00:46:06.638Z,8.55
2022-10-05T00:50:00.553Z,8.55
2022-10-05T00:57:33.588Z,8.38
2022-10-05T01:01:00.633Z,8.42
2022-10-05T01:04:21.559Z,8.33
2022-10-05T01:07:46.547Z,8.34
2022-10-05T01:11:22.570Z,8.35
2022-10-05T01:14:43.557Z,8.31
2022-10-05T01:18:03.014Z,8.28
2022-10-05T01:21:32.569Z,8.24
2022-10-05T01:25:20.987Z,8.26
2022-10-05T01:28:35.577Z,8.24
2022-10-05T01:39:46.569Z,8.23
2022-10-05T01:47:32.577Z,8.12
2022-10-05T01:50:56.112Z,8.01
2022-10-05T01:54:22.567Z,8.02
2022-10-05T01:57:59.589Z,8.06
2022-10-05T02:01:12.873Z,8.05
2022-10-05T02:05:04.913Z,8.02
2022-10-05T02:08:41.566Z,8.00
2022-10-05T02:12:21.561Z,7.95
2022-10-05T02:15:44.597Z,8.00
2022-10-05T02:19:04.562Z,7.98
2022-10-05T02:22:41.668Z,7.94
2022-10-05T02:25:59.554Z,7.98
2022-10-05T02:29:19.569Z,7.95
2022-10-05T02:32:49.511Z,7.91
2022-10-05T02:36:35.588Z,7.81
2022-10-05T02:43:49.582Z,7.79
2022-10-05T02:47:41.906Z,7.71
2022-10-05T02:51:08.568Z,7.60
2022-10-05T02:55:09.576Z,7.61
2022-10-05T02:58:28.713Z,7.58
2022-10-05T03:01:47.603Z,7.57
2022-10-05T03:05:17.559Z,7.49
2022-10-05T03:09:10.588Z,7.51
2022-10-05T03:12:37.556Z,7.51
2022-10-05T03:20:00.587Z,7.44
2022-10-05T03:23:44.560Z,7.44
2022-10-05T03:27:22.539Z,7.41
2022-10-05T03:30:48.635Z,7.37
2022-10-05T03:38:25.580Z,7.29
2022-10-05T03:41:51.576Z,7.30
2022-10-05T03:45:39.549Z,7.27
2022-10-05T03:49:12.579Z,7.17
2022-10-05T03:52:38.193Z,7.32
2022-10-05T03:56:13.565Z,7.33
2022-10-05T04:03:39.565Z,7.36
2022-10-05T04:06:50.703Z,7.32
2022-10-05T04:10:01.570Z,7.32
2022-10-05T04:13:21.557Z,7.30
2022-10-05T04:16:44.942Z,7.32
2022-10-05T04:20:05.591Z,7.37
2022-10-05T04:23:57.581Z,7.37
2022-10-05T04:27:23.956Z,7.29
2022-10-05T04:30:32.546Z,7.28
2022-10-05T04:34:03.557Z,7.25
2022-10-05T04:37:21.665Z,7.23
2022-10-05T04:40:33.588Z,7.22
2022-10-05T04:44:29.553Z,7.23
2022-10-05T04:47:41.000Z,7.14
2022-10-05T04:51:23.584Z,7.22
2022-10-05T04:55:16.552Z,7.14
2022-10-05T04:58:31.115Z,7.18
2022-10-05T05:02:02.605Z,7.16
2022-10-05T05:06:11.956Z,7.18
2022-10-05T05:09:47.551Z,7.17
2022-10-05T05:13:54.575Z,7.14
2022-10-05T05:17:14.946Z,7.15
2022-10-05T05:20:47.588Z,7.18
2022-10-05T05:24:03.956Z,7.22
2022-10-05T05:27:40.585Z,7.24
2022-10-05T05:31:01.571Z,7.28
2022-10-05T05:34:34.833Z,7.25
2022-10-05T05:37:59.545Z,7.22
2022-10-05T05:41:23.563Z,7.30
2022-10-05T05:44:43.282Z,7.34
2022-10-05T05:48:00.560Z,7.44
2022-10-05T05:51:17.573Z,7.48
2022-10-05T05:54:51.234Z,7.57
2022-10-05T05:58:29.566Z,7.69
2022-10-05T06:01:49.009Z,7.82
2022-10-05T06:05:09.576Z,8.22
2022-10-05T06:08:31.580Z,8.17
2022-10-05T06:11:51.783Z,8.20
2022-10-05T06:15:35.547Z,8.35
2022-10-05T06:18:41.135Z,8.47
2022-10-05T06:22:10.600Z,8.48
2022-10-05T06:25:55.010Z,8.70
2022-10-05T06:29:21.562Z,8.79
2022-10-05T06:33:07.708Z,8.96
2022-10-05T06:36:43.772Z,9.11
2022-10-05T06:40:17.605Z,9.32
2022-10-05T06:43:46.586Z,9.48
2022-10-05T06:47:20.553Z,9.59
2022-10-05T06:50:59.555Z,9.68
2022-10-05T06:54:38.552Z,9.78
2022-10-05T06:58:25.571Z,9.88
2022-10-05T07:01:51.808Z,9.98
2022-10-05T07:05:25.742Z,10.14
2022-10-05T07:08:46.569Z,10.30
2022-10-05T07:12:07.880Z,10.43
2022-10-05T07:15:32.532Z,10.59
2022-10-05T07:18:50.554Z,10.82
2022-10-05T07:22:28.272Z,10.99
2022-10-05T07:25:57.558Z,11.21
2022-10-05T07:29:18.581Z,11.33
2022-10-05T07:32:46.603Z,11.52
2022-10-05T07:36:16.567Z,12.02
2022-10-05T07:39:58.336Z,12.41
2022-10-05T07:43:10.571Z,12.78
2022-10-05T07:46:43.632Z,13.04
2022-10-05T07:50:05.571Z,13.27
2022-10-05T07:53:41.606Z,13.75
2022-10-05T07:57:05.558Z,13.95
2022-10-05T08:00:23.446Z,14.20
2022-10-05T08:03:49.560Z,14.49
2022-10-05T08:07:09.648Z,14.79
2022-10-05T08:10:18.881Z,15.07
2022-10-05T08:13:44.543Z,15.21
2022-10-05T08:17:03.756Z,15.35
2022-10-05T08:20:21.095Z,15.54
2022-10-05T08:23:48.573Z,15.81
2022-10-05T08:27:10.569Z,16.02
2022-10-05T08:30:15.616Z,16.14
2022-10-05T08:37:36.552Z,16.42
2022-10-05T08:40:51.194Z,16.61
2022-10-05T08:44:34.597Z,16.72
2022-10-05T08:48:20.890Z,16.85
2022-10-05T08:52:06.547Z,17.08
2022-10-05T08:55:35.563Z,17.24
2022-10-05T08:59:11.620Z,17.24
2022-10-05T09:03:07.566Z,17.46
2022-10-05T09:06:59.564Z,17.71
2022-10-05T09:10:24.560Z,18.15
2022-10-05T09:14:10.618Z,18.24
2022-10-05T09:18:06.963Z,18.24
2022-10-05T09:21:24.579Z,18.12
2022-10-05T09:25:01.572Z,17.98
2022-10-05T09:28:27.843Z,17.73
2022-10-05T09:31:57.553Z,17.90
2022-10-05T09:35:21.557Z,17.68
2022-10-05T09:38:55.588Z,18.06
2022-10-05T09:42:16.214Z,18.27
2022-10-05T09:45:42.568Z,18.39
2022-10-05T09:49:24.577Z,18.46
2022-10-05T09:52:48.231Z,18.50
2022-10-05T09:56:21.750Z,18.48
2022-10-05T09:59:46.578Z,18.16
2022-10-05T10:03:26.179Z,18.20
2022-10-05T10:06:55.569Z,18.23
2022-10-05T10:10:46.566Z,18.03
2022-10-05T10:14:00.876Z,18.28
2022-10-05T10:17:23.599Z,18.19
2022-10-05T10:20:48.570Z,18.35
2022-10-05T10:24:12.553Z,18.50
2022-10-05T10:27:52.343Z,18.79
2022-10-05T10:31:26.090Z,18.94
2022-10-05T10:34:54.684Z,18.97
2022-10-05T10:38:21.576Z,18.67
2022-10-05T10:42:02.578Z,18.32
2022-10-05T10:45:14.105Z,17.97
2022-10-05T10:48:57.567Z,17.91
2022-10-05T10:52:42.585Z,17.87
2022-10-05T10:56:12.563Z,17.97
2022-10-05T10:59:36.495Z,18.19
2022-10-05T11:03:06.664Z,18.59
2022-10-05T11:06:37.012Z,18.68
2022-10-05T11:09:54.561Z,18.66
2022-10-05T11:13:17.557Z,18.45
2022-10-05T11:16:31.991Z,18.50
2022-10-05T11:20:15.660Z,18.84
2022-10-05T11:23:38.589Z,18.75
2022-10-05T11:27:33.139Z,19.02
2022-10-05T11:30:56.619Z,18.84
2022-10-05T11:34:35.561Z,18.87
2022-10-05T11:38:02.494Z,19.19
2022-10-05T11:41:52.802Z,19.16
2022-10-05T11:45:49.600Z,18.90
2022-10-05T11:48:59.073Z,19.20
2022-10-05T11:52:29.581Z,19.01
2022-10-05T11:55:40.626Z,18.95
2022-10-05T11:59:18.254Z,18.89
2022-10-05T12:02:45.666Z,18.80
2022-10-05T12:06:15.601Z,18.52
2022-10-05T12:09:37.421Z,18.59
2022-10-05T12:12:58.725Z,18.68
2022-10-05T12:16:32.762Z,18.57
2022-10-05T12:19:58.573Z,18.58
2022-10-05T12:23:29.594Z,18.41
2022-10-05T12:26:48.660Z,18.54
2022-10-05T12:30:21.589Z,18.65
2022-10-05T12:34:02.792Z,18.79
2022-10-05T12:37:52.581Z,18.97
2022-10-05T12:41:24.593Z,18.95
2022-10-05T12:45:11.884Z,18.87
2022-10-05T12:48:45.609Z,18.87
2022-10-05T12:52:10.591Z,18.89
2022-10-05T12:55:38.597Z,18.87
2022-10-05T12:59:00.886Z,18.88
2022-10-05T13:02:28.621Z,18.90
2022-10-05T13:05:34.113Z,18.80
2022-10-05T13:09:02.590Z,18.82
2022-10-05T13:12:48.595Z,18.71
2022-10-05T13:16:21.647Z,18.65
2022-10-05T13:19:45.977Z,18.44
2022-10-05T13:23:19.583Z,18.68
2022-10-05T13:26:50.608Z,18.67
2022-10-05T13:30:14.301Z,18.69
2022-10-05T13:33:50.591Z,18.66
2022-10-05T13:37:16.078Z,18.53
2022-10-05T13:40:39.624Z,18.54
2022-10-05T13:44:03.608Z,18.47
2022-10-05T13:47:50.553Z,18.48
2022-10-05T13:51:18.580Z,18.49
2022-10-05T13:54:44.613Z,18.38
2022-10-05T13:58:02.100Z,18.31
2022-10-05T14:01:50.647Z,18.35
2022-10-05T14:05:06.587Z,18.30
2022-10-05T14:08:23.605Z,18.27
2022-10-05T14:11:38.585Z,18.25
2022-10-05T14:15:01.638Z,18.24
2022-10-05T14:18:25.016Z,18.08
2022-10-05T14:21:37.792Z,18.12
2022-10-05T14:25:02.594Z,18.16
2022-10-05T14:28:23.294Z,18.23
2022-10-05T14:31:43.681Z,18.19
2022-10-05T14:35:00.606Z,18.10
2022-10-05T14:38:28.748Z,18.15
2022-10-05T14:41:52.617Z,18.10
2022-10-05T14:45:15.826Z,18.08
2022-10-05T14:48:32.609Z,17.95
2022-10-05T14:51:41.613Z,17.89
2022-10-05T14:55:04.439Z,17.88
2022-10-05T14:58:41.662Z,17.80
2022-10-05T15:02:18.835Z,17.75
2022-10-05T15:05:35.283Z,17.66
2022-10-05T15:08:58.603Z,17.63
2022-10-05T15:12:07.421Z,17.60
2022-10-05T15:15:50.645Z,17.52
2022-10-05T15:19:38.604Z,17.48
2022-10-05T15:22:59.178Z,17.38
2022-10-05T15:26:36.636Z,17.33
2022-10-05T15:30:07.602Z,17.20
2022-10-05T15:33:34.165Z,17.18
2022-10-05T15:36:42.590Z,17.14
2022-10-05T15:40:12.132Z,17.06
2022-10-05T15:43:29.622Z,16.94
2022-10-05T15:46:50.617Z,16.80
2022-10-05T15:50:12.653Z,16.70
2022-10-05T15:53:55.611Z,16.67
2022-10-05T15:57:11.664Z,16.60
2022-10-05T16:00:28.608Z,16.55
2022-10-05T16:03:56.633Z,16.52
2022-10-05T16:07:23.624Z,16.46
2022-10-05T16:10:37.031Z,16.37
2022-10-05T16:14:01.617Z,16.27
2022-10-05T16:17:27.638Z,16.12
2022-10-05T16:21:13.649Z,16.08
2022-10-05T16:24:50.237Z,16.03
2022-10-05T16:28:31.693Z,15.95
2022-10-05T16:32:25.625Z,15.89
2022-10-05T16:36:08.638Z,15.78
2022-10-05T16:39:48.580Z,15.71
2022-10-05T16:43:22.646Z,15.56
2022-10-05T16:46:52.560Z,15.49
2022-10-05T16:50:13.652Z,15.38
2022-10-05T16:53:34.618Z,15.33
2022-10-05T16:56:58.650Z,15.29
2022-10-05T17:00:19.173Z,15.26
2022-10-05T17:03:38.633Z,15.14
2022-10-05T17:07:14.801Z,15.20
2022-10-05T17:10:37.645Z,15.15
2022-10-05T17:14:04.605Z,15.08
2022-10-05T17:18:02.642Z,14.98
2022-10-05T17:21:24.632Z,14.92
2022-10-05T17:24:42.664Z,14.87
2022-10-05T17:27:57.941Z,14.82
2022-10-05T17:31:27.689Z,14.79
2022-10-05T17:34:45.633Z,14.63
2022-10-05T17:38:10.973Z,14.59
2022-10-05T17:41:34.633Z,14.66
2022-10-05T17:44:43.351Z,14.61
2022-10-05T17:48:15.666Z,14.55
2022-10-05T17:51:36.622Z,14.48
2022-10-05T17:54:50.632Z,14.44
2022-10-05T17:58:20.579Z,14.36
2022-10-05T18:01:47.666Z,14.32
2022-10-05T18:05:22.627Z,14.28
2022-10-05T18:08:31.802Z,14.24
2022-10-05T18:11:50.647Z,14.17
2022-10-05T18:15:11.945Z,14.13
2022-10-05T18:18:33.756Z,14.08
2022-10-05T18:22:06.827Z,14.03
2022-10-05T18:25:30.686Z,13.98
2022-10-05T18:28:38.680Z,13.95
2022-10-05T18:32:04.653Z,13.91
2022-10-05T18:35:26.301Z,13.86
2022-10-05T18:38:52.982Z,13.88
2022-10-05T18:42:19.684Z,13.85
2022-10-05T18:45:28.988Z,13.81
2022-10-05T18:49:04.009Z,13.79
2022-10-05T18:52:19.190Z,13.73
2022-10-05T18:55:42.686Z,13.70
2022-10-05T18:59:11.046Z,13.66
2022-10-05T19:02:53.129Z,13.60
2022-10-05T19:06:33.603Z,13.55
2022-10-05T19:10:03.398Z,13.47
2022-10-05T19:13:49.687Z,13.41
2022-10-05T19:17:36.001Z,13.36
2022-10-05T19:21:02.370Z,13.34
2022-10-05T19:24:55.054Z,13.29
2022-10-05T19:28:26.560Z,13.26
2022-10-05T19:32:03.671Z,13.23
2022-10-05T19:35:39.639Z,13.17
2022-10-05T19:39:02.848Z,13.06
2022-10-05T19:42:26.655Z,13.04
2022-10-05T19:45:36.834Z,12.99
2022-10-05T19:48:52.686Z,12.94
2022-10-05T19:52:02.642Z,12.88
2022-10-05T19:55:15.002Z,12.84
2022-10-05T19:58:31.361Z,12.82
2022-10-05T20:01:33.552Z,12.78
2022-10-05T20:04:51.977Z,12.76
2022-10-05T20:07:53.955Z,12.74
2022-10-05T20:11:31.649Z,12.68
2022-10-05T20:14:46.643Z,12.58
2022-10-05T20:17:48.446Z,12.61
2022-10-05T20:21:03.620Z,12.52
2022-10-05T20:24:20.668Z,12.55
2022-10-05T20:27:50.005Z,12.52
2022-10-05T20:30:58.742Z,12.50
2022-10-05T20:34:07.159Z,12.24
2022-10-05T20:37:24.664Z,12.39
2022-10-05T20:40:39.644Z,12.39
2022-10-05T20:43:41.410Z,12.30
2022-10-05T20:46:56.719Z,12.25
2022-10-05T20:50:05.665Z,12.25
2022-10-05T20:53:14.235Z,12.21
2022-10-05T20:56:29.659Z,12.16
2022-10-05T20:59:31.718Z,12.09
2022-10-05T21:02:46.679Z,12.08
2022-10-05T21:05:55.126Z,12.06
2022-10-05T21:09:03.654Z,11.96
2022-10-05T21:12:19.634Z,11.98
2022-10-05T21:15:28.269Z,11.97
2022-10-05T21:18:42.658Z,11.92
2022-10-05T21:21:57.621Z,11.93
2022-10-05T21:25:05.669Z,11.84
2022-10-05T21:28:14.236Z,11.82
2022-10-05T21:31:28.703Z,11.75
2022-10-05T21:34:47.627Z,11.73
2022-10-05T21:38:02.652Z,11.66
2022-10-05T21:41:17.621Z,11.63
2022-10-05T21:44:19.354Z,11.55
2022-10-05T21:47:33.629Z,11.57
2022-10-05T21:50:42.666Z,11.51
2022-10-05T21:53:56.898Z,11.46
2022-10-05T21:57:05.637Z,11.39
2022-10-05T22:00:23.625Z,11.34
2022-10-05T22:03:25.476Z,11.21
2022-10-05T22:06:41.626Z,11.22
2022-10-05T22:09:51.472Z,11.21
2022-10-05T22:12:59.626Z,11.15
2022-10-05T22:16:08.222Z,11.16
2022-10-05T22:19:22.638Z,11.16
2022-10-05T22:22:37.644Z,11.15
2022-10-05T22:25:39.672Z,11.13
2022-10-05T22:28:57.665Z,11.11
2022-10-05T22:32:06.140Z,11.13
2022-10-05T22:35:27.660Z,11.11
2022-10-05T22:38:36.538Z,11.08
2022-10-05T22:41:44.681Z,11.05
2022-10-05T22:44:53.137Z,11.05
2022-10-05T22:48:01.656Z,11.10
2022-10-05T22:51:17.648Z,11.06
2022-10-05T22:54:29.577Z,11.17
2022-10-05T22:57:49.671Z,11.18
2022-10-05T23:01:06.339Z,11.16
2022-10-05T23:04:14.638Z,11.18
2022-10-05T23:07:29.672Z,11.18
2022-10-05T23:10:44.631Z,11.20
2022-10-05T23:13:52.650Z,11.17
2022-10-05T23:17:07.704Z,11.19
2022-10-05T23:20:09.979Z,11.07
2022-10-05T23:23:24.677Z,11.13
2022-10-05T23:26:26.822Z,11.06
2022-10-05T23:29:41.644Z,11.06
2022-10-05T23:32:50.268Z,11.04
2022-10-05T23:36:05.651Z,11.03
2022-10-05T23:39:20.675Z,11.02
2022-10-05T23:42:29.218Z,11.02
2022-10-05T23:45:37.675Z,11.04
2022-10-05T23:48:46.131Z,11.05
2022-10-05T23:52:00.654Z,11.08
2022-10-05T23:55:04.658Z,11.11
2022-10-05T23:58:19.661Z,11.11
